sensor_id;sensor_type;location;lat;lon;timestamp;temperature;humidity
25436;DHT22;13363;52.772;-3.890;2023-04-24T00:00:14;6.10;99.90
25436;DHT22;13363;52.772;-3.890;2023-04-24T00:02:44;6.20;99.90
25436;DHT22;13363;52.772;-3.890;2023-04-24T00:05:13;6.30;99.90
25436;DHT22;13363;52.772;-3.890;2023-04-24T00:07:40;6.30;99.90
25436;DHT22;13363;52.772;-3.890;2023-04-24T00:10:07;6.30;99.90
25436;DHT22;13363;52.772;-3.890;2023-04-24T00:12:33;6.20;99.90
25436;DHT22;13363;52.772;-3.890;2023-04-24T00:15:00;6.20;99.90
25436;DHT22;13363;52.772;-3.890;2023-04-24T00:17:26;6.20;99.90
25436;DHT22;13363;52.772;-3.890;2023-04-24T00:19:52;6.30;99.90
25436;DHT22;13363;52.772;-3.890;2023-04-24T00:22:27;6.30;99.90
25436;DHT22;13363;52.772;-3.890;2023-04-24T00:24:54;6.40;99.90
25436;DHT22;13363;52.772;-3.890;2023-04-24T00:27:20;6.50;99.90
25436;DHT22;13363;52.772;-3.890;2023-04-24T00:29:46;6.50;99.90
25436;DHT22;13363;52.772;-3.890;2023-04-24T00:32:11;6.60;99.90
25436;DHT22;13363;52.772;-3.890;2023-04-24T00:34:37;6.80;99.90
25436;DHT22;13363;52.772;-3.890;2023-04-24T00:37:03;6.80;99.90
25436;DHT22;13363;52.772;-3.890;2023-04-24T00:39:29;6.70;99.90
25436;DHT22;13363;52.772;-3.890;2023-04-24T00:41:56;6.70;99.90
25436;DHT22;13363;52.772;-3.890;2023-04-24T00:44:22;6.70;99.90
25436;DHT22;13363;52.772;-3.890;2023-04-24T00:46:49;6.60;99.90
25436;DHT22;13363;52.772;-3.890;2023-04-24T00:49:23;6.60;99.90
25436;DHT22;13363;52.772;-3.890;2023-04-24T00:51:49;6.50;99.90
25436;DHT22;13363;52.772;-3.890;2023-04-24T00:54:17;6.50;99.90
25436;DHT22;13363;52.772;-3.890;2023-04-24T00:56:44;6.50;99.90
25436;DHT22;13363;52.772;-3.890;2023-04-24T00:59:11;6.50;99.90
25436;DHT22;13363;52.772;-3.890;2023-04-24T01:01:37;6.50;99.90
25436;DHT22;13363;52.772;-3.890;2023-04-24T01:04:07;6.40;99.90
25436;DHT22;13363;52.772;-3.890;2023-04-24T01:06:38;6.30;99.90
25436;DHT22;13363;52.772;-3.890;2023-04-24T01:09:04;6.30;99.90
25436;DHT22;13363;52.772;-3.890;2023-04-24T01:11:31;6.20;99.90
25436;DHT22;13363;52.772;-3.890;2023-04-24T01:13:57;6.30;99.90
25436;DHT22;13363;52.772;-3.890;2023-04-24T01:16:24;6.20;99.90
25436;DHT22;13363;52.772;-3.890;2023-04-24T01:18:50;6.30;99.90
25436;DHT22;13363;52.772;-3.890;2023-04-24T01:21:17;6.20;99.90
25436;DHT22;13363;52.772;-3.890;2023-04-24T01:23:44;6.30;99.90
25436;DHT22;13363;52.772;-3.890;2023-04-24T01:26:10;6.30;99.90
25436;DHT22;13363;52.772;-3.890;2023-04-24T01:28:37;6.30;99.90
25436;DHT22;13363;52.772;-3.890;2023-04-24T01:31:03;6.30;99.90
25436;DHT22;13363;52.772;-3.890;2023-04-24T01:33:29;6.40;99.90
25436;DHT22;13363;52.772;-3.890;2023-04-24T01:35:55;6.50;99.90
25436;DHT22;13363;52.772;-3.890;2023-04-24T01:38:20;6.60;99.90
25436;DHT22;13363;52.772;-3.890;2023-04-24T01:40:47;6.60;99.90
25436;DHT22;13363;52.772;-3.890;2023-04-24T01:43:13;6.70;99.90
25436;DHT22;13363;52.772;-3.890;2023-04-24T01:45:39;6.70;99.90
25436;DHT22;13363;52.772;-3.890;2023-04-24T01:48:05;6.60;99.90
25436;DHT22;13363;52.772;-3.890;2023-04-24T01:50:31;6.70;99.90
25436;DHT22;13363;52.772;-3.890;2023-04-24T01:52:57;6.60;99.90
25436;DHT22;13363;52.772;-3.890;2023-04-24T01:55:22;6.70;99.90
25436;DHT22;13363;52.772;-3.890;2023-04-24T01:57:49;6.80;99.90
25436;DHT22;13363;52.772;-3.890;2023-04-24T02:00:15;6.90;99.90
25436;DHT22;13363;52.772;-3.890;2023-04-24T02:02:41;7.00;99.90
25436;DHT22;13363;52.772;-3.890;2023-04-24T02:05:08;7.00;99.90
25436;DHT22;13363;52.772;-3.890;2023-04-24T02:07:34;7.00;99.90
25436;DHT22;13363;52.772;-3.890;2023-04-24T02:10:00;7.00;99.90
25436;DHT22;13363;52.772;-3.890;2023-04-24T02:12:26;6.90;99.90
25436;DHT22;13363;52.772;-3.890;2023-04-24T02:14:51;6.90;99.90
25436;DHT22;13363;52.772;-3.890;2023-04-24T02:17:17;6.90;99.90
25436;DHT22;13363;52.772;-3.890;2023-04-24T02:19:45;6.80;99.90
25436;DHT22;13363;52.772;-3.890;2023-04-24T02:22:11;6.80;99.90
25436;DHT22;13363;52.772;-3.890;2023-04-24T02:24:37;6.80;99.90
25436;DHT22;13363;52.772;-3.890;2023-04-24T02:27:03;6.80;99.90
25436;DHT22;13363;52.772;-3.890;2023-04-24T02:29:29;6.70;99.90
25436;DHT22;13363;52.772;-3.890;2023-04-24T02:31:56;6.60;99.90
25436;DHT22;13363;52.772;-3.890;2023-04-24T02:34:21;6.60;99.90
25436;DHT22;13363;52.772;-3.890;2023-04-24T02:36:48;6.50;99.90
25436;DHT22;13363;52.772;-3.890;2023-04-24T02:39:14;6.60;99.90
25436;DHT22;13363;52.772;-3.890;2023-04-24T02:41:43;6.60;99.90
25436;DHT22;13363;52.772;-3.890;2023-04-24T02:44:09;6.70;99.90
25436;DHT22;13363;52.772;-3.890;2023-04-24T02:46:35;6.80;99.90
25436;DHT22;13363;52.772;-3.890;2023-04-24T02:49:01;6.80;99.90
25436;DHT22;13363;52.772;-3.890;2023-04-24T02:51:27;6.90;99.90
25436;DHT22;13363;52.772;-3.890;2023-04-24T02:53:52;7.00;99.90
25436;DHT22;13363;52.772;-3.890;2023-04-24T02:56:18;7.00;99.90
25436;DHT22;13363;52.772;-3.890;2023-04-24T02:58:44;7.00;99.90
25436;DHT22;13363;52.772;-3.890;2023-04-24T03:01:10;7.00;99.90
25436;DHT22;13363;52.772;-3.890;2023-04-24T03:03:37;6.90;99.90
25436;DHT22;13363;52.772;-3.890;2023-04-24T03:06:03;7.00;99.90
25436;DHT22;13363;52.772;-3.890;2023-04-24T03:08:31;7.00;99.90
25436;DHT22;13363;52.772;-3.890;2023-04-24T03:10:57;6.90;99.90
25436;DHT22;13363;52.772;-3.890;2023-04-24T03:13:23;6.90;99.90
25436;DHT22;13363;52.772;-3.890;2023-04-24T03:15:50;6.90;99.90
25436;DHT22;13363;52.772;-3.890;2023-04-24T03:18:16;7.00;99.90
25436;DHT22;13363;52.772;-3.890;2023-04-24T03:20:42;7.00;99.90
25436;DHT22;13363;52.772;-3.890;2023-04-24T03:23:07;7.10;99.90
25436;DHT22;13363;52.772;-3.890;2023-04-24T03:25:33;7.10;99.90
25436;DHT22;13363;52.772;-3.890;2023-04-24T03:27:59;7.00;99.90
25436;DHT22;13363;52.772;-3.890;2023-04-24T03:30:25;6.90;99.90
25436;DHT22;13363;52.772;-3.890;2023-04-24T03:32:51;6.90;99.90
25436;DHT22;13363;52.772;-3.890;2023-04-24T03:35:16;6.90;99.90
25436;DHT22;13363;52.772;-3.890;2023-04-24T03:37:42;6.90;99.90
25436;DHT22;13363;52.772;-3.890;2023-04-24T03:40:08;6.90;99.90
25436;DHT22;13363;52.772;-3.890;2023-04-24T03:42:34;7.00;99.90
25436;DHT22;13363;52.772;-3.890;2023-04-24T03:45:00;7.00;99.90
25436;DHT22;13363;52.772;-3.890;2023-04-24T03:47:26;7.10;99.90
25436;DHT22;13363;52.772;-3.890;2023-04-24T03:49:51;7.10;99.90
25436;DHT22;13363;52.772;-3.890;2023-04-24T03:52:17;7.10;99.90
25436;DHT22;13363;52.772;-3.890;2023-04-24T03:54:43;7.10;99.90
25436;DHT22;13363;52.772;-3.890;2023-04-24T03:57:09;7.20;99.90
25436;DHT22;13363;52.772;-3.890;2023-04-24T03:59:35;7.10;99.90
25436;DHT22;13363;52.772;-3.890;2023-04-24T04:02:01;7.10;99.90
25436;DHT22;13363;52.772;-3.890;2023-04-24T04:04:27;7.10;99.90
25436;DHT22;13363;52.772;-3.890;2023-04-24T04:06:52;7.10;99.90
25436;DHT22;13363;52.772;-3.890;2023-04-24T04:09:18;7.20;99.90
25436;DHT22;13363;52.772;-3.890;2023-04-24T04:11:44;7.20;99.90
25436;DHT22;13363;52.772;-3.890;2023-04-24T04:14:10;7.40;99.90
25436;DHT22;13363;52.772;-3.890;2023-04-24T04:16:36;7.50;99.90
25436;DHT22;13363;52.772;-3.890;2023-04-24T04:19:02;7.60;99.90
25436;DHT22;13363;52.772;-3.890;2023-04-24T04:21:28;7.60;99.90
25436;DHT22;13363;52.772;-3.890;2023-04-24T04:23:56;7.60;99.90
25436;DHT22;13363;52.772;-3.890;2023-04-24T04:26:22;7.50;99.90
25436;DHT22;13363;52.772;-3.890;2023-04-24T04:28:51;7.40;99.90
25436;DHT22;13363;52.772;-3.890;2023-04-24T04:31:18;7.40;99.90
25436;DHT22;13363;52.772;-3.890;2023-04-24T04:33:45;7.30;99.90
25436;DHT22;13363;52.772;-3.890;2023-04-24T04:36:11;7.30;99.90
25436;DHT22;13363;52.772;-3.890;2023-04-24T04:38:37;7.40;99.90
25436;DHT22;13363;52.772;-3.890;2023-04-24T04:41:03;7.40;99.90
25436;DHT22;13363;52.772;-3.890;2023-04-24T04:43:29;7.40;99.90
25436;DHT22;13363;52.772;-3.890;2023-04-24T04:45:57;7.40;99.90
25436;DHT22;13363;52.772;-3.890;2023-04-24T04:48:23;7.50;99.90
25436;DHT22;13363;52.772;-3.890;2023-04-24T04:50:49;7.50;99.90
25436;DHT22;13363;52.772;-3.890;2023-04-24T04:53:15;7.40;99.90
25436;DHT22;13363;52.772;-3.890;2023-04-24T04:55:41;7.30;99.90
25436;DHT22;13363;52.772;-3.890;2023-04-24T04:58:07;7.30;99.90
25436;DHT22;13363;52.772;-3.890;2023-04-24T05:00:32;7.30;99.90
25436;DHT22;13363;52.772;-3.890;2023-04-24T05:03:01;7.20;99.90
25436;DHT22;13363;52.772;-3.890;2023-04-24T05:05:28;7.20;99.90
25436;DHT22;13363;52.772;-3.890;2023-04-24T05:07:54;7.20;99.90
25436;DHT22;13363;52.772;-3.890;2023-04-24T05:10:19;7.20;99.90
25436;DHT22;13363;52.772;-3.890;2023-04-24T05:12:45;7.20;99.90
25436;DHT22;13363;52.772;-3.890;2023-04-24T05:15:11;7.30;99.90
25436;DHT22;13363;52.772;-3.890;2023-04-24T05:17:37;7.20;99.90
25436;DHT22;13363;52.772;-3.890;2023-04-24T05:20:05;7.20;99.90
25436;DHT22;13363;52.772;-3.890;2023-04-24T05:22:31;7.20;99.90
25436;DHT22;13363;52.772;-3.890;2023-04-24T05:24:57;7.20;99.90
25436;DHT22;13363;52.772;-3.890;2023-04-24T05:27:24;7.20;99.90
25436;DHT22;13363;52.772;-3.890;2023-04-24T05:29:50;7.20;99.90
25436;DHT22;13363;52.772;-3.890;2023-04-24T05:32:16;7.20;99.90
25436;DHT22;13363;52.772;-3.890;2023-04-24T05:34:42;7.30;99.90
25436;DHT22;13363;52.772;-3.890;2023-04-24T05:39:35;7.30;99.90
25436;DHT22;13363;52.772;-3.890;2023-04-24T05:42:02;7.20;99.90
25436;DHT22;13363;52.772;-3.890;2023-04-24T05:44:30;7.30;99.90
25436;DHT22;13363;52.772;-3.890;2023-04-24T05:46:56;7.30;99.90
25436;DHT22;13363;52.772;-3.890;2023-04-24T05:49:22;7.30;99.90
25436;DHT22;13363;52.772;-3.890;2023-04-24T05:51:48;7.30;99.90
25436;DHT22;13363;52.772;-3.890;2023-04-24T05:54:13;7.30;99.90
25436;DHT22;13363;52.772;-3.890;2023-04-24T05:56:40;7.30;99.90
25436;DHT22;13363;52.772;-3.890;2023-04-24T05:59:06;7.40;99.90
25436;DHT22;13363;52.772;-3.890;2023-04-24T06:01:33;7.40;99.90
25436;DHT22;13363;52.772;-3.890;2023-04-24T06:03:59;7.40;99.90
25436;DHT22;13363;52.772;-3.890;2023-04-24T06:06:25;7.40;99.90
25436;DHT22;13363;52.772;-3.890;2023-04-24T06:08:51;7.30;99.90
25436;DHT22;13363;52.772;-3.890;2023-04-24T06:11:17;7.40;99.90
25436;DHT22;13363;52.772;-3.890;2023-04-24T06:13:43;7.40;99.90
25436;DHT22;13363;52.772;-3.890;2023-04-24T06:16:10;7.40;99.90
25436;DHT22;13363;52.772;-3.890;2023-04-24T06:18:35;7.40;99.90
25436;DHT22;13363;52.772;-3.890;2023-04-24T06:21:01;7.40;99.90
25436;DHT22;13363;52.772;-3.890;2023-04-24T06:23:27;7.40;99.90
25436;DHT22;13363;52.772;-3.890;2023-04-24T06:25:53;7.40;99.90
25436;DHT22;13363;52.772;-3.890;2023-04-24T06:28:19;7.40;99.90
25436;DHT22;13363;52.772;-3.890;2023-04-24T06:30:45;7.40;99.90
25436;DHT22;13363;52.772;-3.890;2023-04-24T06:33:11;7.50;99.90
25436;DHT22;13363;52.772;-3.890;2023-04-24T06:35:36;7.40;99.90
25436;DHT22;13363;52.772;-3.890;2023-04-24T06:38:03;7.40;99.90
25436;DHT22;13363;52.772;-3.890;2023-04-24T06:40:29;7.40;99.90
25436;DHT22;13363;52.772;-3.890;2023-04-24T06:42:55;7.40;99.90
25436;DHT22;13363;52.772;-3.890;2023-04-24T06:45:23;7.40;99.90
25436;DHT22;13363;52.772;-3.890;2023-04-24T06:47:49;7.20;99.90
25436;DHT22;13363;52.772;-3.890;2023-04-24T06:50:14;7.20;99.90
25436;DHT22;13363;52.772;-3.890;2023-04-24T06:52:40;7.20;99.90
25436;DHT22;13363;52.772;-3.890;2023-04-24T06:55:07;7.20;99.90
25436;DHT22;13363;52.772;-3.890;2023-04-24T06:57:33;7.20;99.90
25436;DHT22;13363;52.772;-3.890;2023-04-24T06:59:58;7.20;99.90
25436;DHT22;13363;52.772;-3.890;2023-04-24T07:02:25;7.10;99.90
25436;DHT22;13363;52.772;-3.890;2023-04-24T07:04:51;7.10;99.90
25436;DHT22;13363;52.772;-3.890;2023-04-24T07:07:16;7.10;99.90
25436;DHT22;13363;52.772;-3.890;2023-04-24T07:09:42;7.20;99.90
25436;DHT22;13363;52.772;-3.890;2023-04-24T07:12:09;7.30;99.90
25436;DHT22;13363;52.772;-3.890;2023-04-24T07:14:39;7.40;99.90
25436;DHT22;13363;52.772;-3.890;2023-04-24T07:17:05;7.30;99.90
25436;DHT22;13363;52.772;-3.890;2023-04-24T07:19:33;7.40;99.90
25436;DHT22;13363;52.772;-3.890;2023-04-24T07:22:00;7.50;99.90
25436;DHT22;13363;52.772;-3.890;2023-04-24T07:24:26;7.50;99.90
25436;DHT22;13363;52.772;-3.890;2023-04-24T07:26:53;7.50;99.90
25436;DHT22;13363;52.772;-3.890;2023-04-24T07:29:19;7.50;99.90
25436;DHT22;13363;52.772;-3.890;2023-04-24T07:31:46;7.50;99.90
25436;DHT22;13363;52.772;-3.890;2023-04-24T07:34:12;7.50;99.90
25436;DHT22;13363;52.772;-3.890;2023-04-24T07:36:38;7.50;99.90
25436;DHT22;13363;52.772;-3.890;2023-04-24T07:39:07;7.50;99.90
25436;DHT22;13363;52.772;-3.890;2023-04-24T07:41:33;7.50;99.90
25436;DHT22;13363;52.772;-3.890;2023-04-24T07:43:59;7.50;99.90
25436;DHT22;13363;52.772;-3.890;2023-04-24T07:46:25;7.60;99.90
25436;DHT22;13363;52.772;-3.890;2023-04-24T07:48:55;7.50;99.90
25436;DHT22;13363;52.772;-3.890;2023-04-24T07:51:21;7.50;99.90
25436;DHT22;13363;52.772;-3.890;2023-04-24T07:53:46;7.50;99.90
25436;DHT22;13363;52.772;-3.890;2023-04-24T07:56:12;7.50;99.90
25436;DHT22;13363;52.772;-3.890;2023-04-24T07:58:38;7.50;99.90
25436;DHT22;13363;52.772;-3.890;2023-04-24T08:01:04;7.40;99.90
25436;DHT22;13363;52.772;-3.890;2023-04-24T08:03:30;7.50;99.90
25436;DHT22;13363;52.772;-3.890;2023-04-24T08:05:56;7.50;99.90
25436;DHT22;13363;52.772;-3.890;2023-04-24T08:08:22;7.50;99.90
25436;DHT22;13363;52.772;-3.890;2023-04-24T08:10:49;7.50;99.90
25436;DHT22;13363;52.772;-3.890;2023-04-24T08:13:15;7.50;99.90
25436;DHT22;13363;52.772;-3.890;2023-04-24T08:15:41;7.50;99.90
25436;DHT22;13363;52.772;-3.890;2023-04-24T08:18:07;7.50;99.90
25436;DHT22;13363;52.772;-3.890;2023-04-24T08:20:33;7.50;99.90
25436;DHT22;13363;52.772;-3.890;2023-04-24T08:22:58;7.60;99.90
25436;DHT22;13363;52.772;-3.890;2023-04-24T08:25:24;7.70;99.90
25436;DHT22;13363;52.772;-3.890;2023-04-24T08:27:51;7.70;99.90
25436;DHT22;13363;52.772;-3.890;2023-04-24T08:30:17;7.80;99.90
25436;DHT22;13363;52.772;-3.890;2023-04-24T08:32:43;7.80;99.90
25436;DHT22;13363;52.772;-3.890;2023-04-24T08:35:09;7.90;99.90
25436;DHT22;13363;52.772;-3.890;2023-04-24T08:37:36;7.90;99.90
25436;DHT22;13363;52.772;-3.890;2023-04-24T08:40:16;7.90;99.90
25436;DHT22;13363;52.772;-3.890;2023-04-24T08:42:44;7.70;99.90
25436;DHT22;13363;52.772;-3.890;2023-04-24T08:45:12;7.70;99.90
25436;DHT22;13363;52.772;-3.890;2023-04-24T08:47:39;7.80;99.90
25436;DHT22;13363;52.772;-3.890;2023-04-24T08:50:06;8.00;99.90
25436;DHT22;13363;52.772;-3.890;2023-04-24T08:52:33;8.10;99.90
25436;DHT22;13363;52.772;-3.890;2023-04-24T08:55:03;7.90;99.90
25436;DHT22;13363;52.772;-3.890;2023-04-24T08:57:30;8.00;99.90
25436;DHT22;13363;52.772;-3.890;2023-04-24T08:59:58;7.90;99.90
25436;DHT22;13363;52.772;-3.890;2023-04-24T09:02:24;8.00;99.90
25436;DHT22;13363;52.772;-3.890;2023-04-24T09:04:51;8.20;99.90
25436;DHT22;13363;52.772;-3.890;2023-04-24T09:07:19;8.20;99.90
25436;DHT22;13363;52.772;-3.890;2023-04-24T09:09:45;8.30;99.90
25436;DHT22;13363;52.772;-3.890;2023-04-24T09:12:11;8.30;99.90
25436;DHT22;13363;52.772;-3.890;2023-04-24T09:14:38;8.20;99.90
25436;DHT22;13363;52.772;-3.890;2023-04-24T09:17:11;8.10;99.90
25436;DHT22;13363;52.772;-3.890;2023-04-24T09:19:37;8.00;99.90
25436;DHT22;13363;52.772;-3.890;2023-04-24T09:22:07;8.00;99.90
25436;DHT22;13363;52.772;-3.890;2023-04-24T09:24:34;8.00;99.90
25436;DHT22;13363;52.772;-3.890;2023-04-24T09:27:01;8.00;99.90
25436;DHT22;13363;52.772;-3.890;2023-04-24T09:29:27;8.10;99.90
25436;DHT22;13363;52.772;-3.890;2023-04-24T09:31:53;8.20;99.90
25436;DHT22;13363;52.772;-3.890;2023-04-24T09:34:24;8.30;99.90
25436;DHT22;13363;52.772;-3.890;2023-04-24T09:36:51;8.50;99.90
25436;DHT22;13363;52.772;-3.890;2023-04-24T09:39:17;8.40;99.90
25436;DHT22;13363;52.772;-3.890;2023-04-24T09:41:55;8.50;99.90
25436;DHT22;13363;52.772;-3.890;2023-04-24T09:44:26;8.50;99.90
25436;DHT22;13363;52.772;-3.890;2023-04-24T09:46:59;8.50;99.90
25436;DHT22;13363;52.772;-3.890;2023-04-24T09:49:32;8.60;99.90
25436;DHT22;13363;52.772;-3.890;2023-04-24T09:52:10;8.70;99.90
25436;DHT22;13363;52.772;-3.890;2023-04-24T09:54:36;8.80;99.90
25436;DHT22;13363;52.772;-3.890;2023-04-24T09:57:03;8.70;99.90
25436;DHT22;13363;52.772;-3.890;2023-04-24T09:59:29;8.80;99.90
25436;DHT22;13363;52.772;-3.890;2023-04-24T10:01:56;8.90;99.90
25436;DHT22;13363;52.772;-3.890;2023-04-24T10:04:26;9.00;99.90
25436;DHT22;13363;52.772;-3.890;2023-04-24T10:06:55;9.10;99.90
25436;DHT22;13363;52.772;-3.890;2023-04-24T10:09:24;9.30;99.90
25436;DHT22;13363;52.772;-3.890;2023-04-24T10:11:52;9.40;99.90
25436;DHT22;13363;52.772;-3.890;2023-04-24T10:14:20;9.30;99.90
25436;DHT22;13363;52.772;-3.890;2023-04-24T10:16:47;9.50;99.90
25436;DHT22;13363;52.772;-3.890;2023-04-24T10:19:14;9.60;99.90
25436;DHT22;13363;52.772;-3.890;2023-04-24T10:21:42;9.70;99.90
25436;DHT22;13363;52.772;-3.890;2023-04-24T10:24:16;9.70;99.90
25436;DHT22;13363;52.772;-3.890;2023-04-24T10:26:43;10.00;99.90
25436;DHT22;13363;52.772;-3.890;2023-04-24T10:29:11;10.00;99.90
25436;DHT22;13363;52.772;-3.890;2023-04-24T10:31:38;10.20;99.90
25436;DHT22;13363;52.772;-3.890;2023-04-24T10:34:08;10.20;99.90
25436;DHT22;13363;52.772;-3.890;2023-04-24T10:36:36;10.20;99.90
25436;DHT22;13363;52.772;-3.890;2023-04-24T10:39:05;10.30;99.90
25436;DHT22;13363;52.772;-3.890;2023-04-24T10:41:33;10.20;99.90
25436;DHT22;13363;52.772;-3.890;2023-04-24T10:44:08;10.20;99.90
25436;DHT22;13363;52.772;-3.890;2023-04-24T10:46:36;10.00;99.90
25436;DHT22;13363;52.772;-3.890;2023-04-24T10:49:06;10.00;99.90
25436;DHT22;13363;52.772;-3.890;2023-04-24T10:51:51;9.90;99.90
25436;DHT22;13363;52.772;-3.890;2023-04-24T10:54:25;10.10;99.90
25436;DHT22;13363;52.772;-3.890;2023-04-24T10:56:51;10.00;99.90
25436;DHT22;13363;52.772;-3.890;2023-04-24T10:59:29;9.90;99.90
25436;DHT22;13363;52.772;-3.890;2023-04-24T11:02:00;10.00;99.90
25436;DHT22;13363;52.772;-3.890;2023-04-24T11:04:30;10.20;99.90
25436;DHT22;13363;52.772;-3.890;2023-04-24T11:06:57;10.30;99.90
25436;DHT22;13363;52.772;-3.890;2023-04-24T11:09:31;10.40;99.90
25436;DHT22;13363;52.772;-3.890;2023-04-24T11:12:08;10.30;99.90
25436;DHT22;13363;52.772;-3.890;2023-04-24T11:17:32;10.30;99.90
25436;DHT22;13363;52.772;-3.890;2023-04-24T11:20:10;10.40;99.90
25436;DHT22;13363;52.772;-3.890;2023-04-24T11:22:39;10.30;99.90
25436;DHT22;13363;52.772;-3.890;2023-04-24T11:25:06;10.30;99.90
25436;DHT22;13363;52.772;-3.890;2023-04-24T11:27:39;10.40;99.90
25436;DHT22;13363;52.772;-3.890;2023-04-24T11:30:06;10.50;99.90
25436;DHT22;13363;52.772;-3.890;2023-04-24T11:32:40;10.70;99.90
25436;DHT22;13363;52.772;-3.890;2023-04-24T11:37:39;10.70;99.90
25436;DHT22;13363;52.772;-3.890;2023-04-24T11:40:08;10.80;99.90
25436;DHT22;13363;52.772;-3.890;2023-04-24T11:42:44;10.90;99.90
25436;DHT22;13363;52.772;-3.890;2023-04-24T11:45:13;11.10;99.90
25436;DHT22;13363;52.772;-3.890;2023-04-24T11:47:39;11.20;99.90
25436;DHT22;13363;52.772;-3.890;2023-04-24T11:50:07;11.10;99.90
25436;DHT22;13363;52.772;-3.890;2023-04-24T11:52:37;11.00;99.90
25436;DHT22;13363;52.772;-3.890;2023-04-24T11:55:03;10.70;99.90
25436;DHT22;13363;52.772;-3.890;2023-04-24T11:57:30;10.50;99.90
25436;DHT22;13363;52.772;-3.890;2023-04-24T12:00:03;10.70;99.90
25436;DHT22;13363;52.772;-3.890;2023-04-24T12:02:30;10.90;99.90
25436;DHT22;13363;52.772;-3.890;2023-04-24T12:04:56;11.30;99.90
25436;DHT22;13363;52.772;-3.890;2023-04-24T12:07:23;11.70;99.90
25436;DHT22;13363;52.772;-3.890;2023-04-24T12:09:54;12.00;99.90
25436;DHT22;13363;52.772;-3.890;2023-04-24T12:12:23;12.10;99.90
25436;DHT22;13363;52.772;-3.890;2023-04-24T12:14:55;12.40;99.90
25436;DHT22;13363;52.772;-3.890;2023-04-24T12:17:31;12.60;99.90
25436;DHT22;13363;52.772;-3.890;2023-04-24T12:20:03;12.70;99.90
25436;DHT22;13363;52.772;-3.890;2023-04-24T12:22:55;12.30;99.90
25436;DHT22;13363;52.772;-3.890;2023-04-24T12:25:25;12.10;99.90
25436;DHT22;13363;52.772;-3.890;2023-04-24T12:28:09;12.10;99.90
25436;DHT22;13363;52.772;-3.890;2023-04-24T12:30:48;11.80;99.90
25436;DHT22;13363;52.772;-3.890;2023-04-24T12:33:20;11.80;99.90
25436;DHT22;13363;52.772;-3.890;2023-04-24T12:35:48;11.70;99.90
25436;DHT22;13363;52.772;-3.890;2023-04-24T12:38:15;12.00;99.90
25436;DHT22;13363;52.772;-3.890;2023-04-24T12:40:43;12.20;99.90
25436;DHT22;13363;52.772;-3.890;2023-04-24T12:43:14;12.40;99.90
25436;DHT22;13363;52.772;-3.890;2023-04-24T12:45:40;12.50;99.90
25436;DHT22;13363;52.772;-3.890;2023-04-24T12:48:06;12.50;99.90
25436;DHT22;13363;52.772;-3.890;2023-04-24T12:50:32;12.70;99.90
25436;DHT22;13363;52.772;-3.890;2023-04-24T12:52:58;12.70;99.90
25436;DHT22;13363;52.772;-3.890;2023-04-24T12:55:24;12.90;99.90
25436;DHT22;13363;52.772;-3.890;2023-04-24T12:57:49;12.80;99.90
25436;DHT22;13363;52.772;-3.890;2023-04-24T13:00:16;12.50;99.90
25436;DHT22;13363;52.772;-3.890;2023-04-24T13:02:44;12.20;99.90
25436;DHT22;13363;52.772;-3.890;2023-04-24T13:05:11;11.70;99.90
25436;DHT22;13363;52.772;-3.890;2023-04-24T13:07:39;11.40;99.90
25436;DHT22;13363;52.772;-3.890;2023-04-24T13:10:06;11.40;99.90
25436;DHT22;13363;52.772;-3.890;2023-04-24T13:12:34;11.40;99.90
25436;DHT22;13363;52.772;-3.890;2023-04-24T13:15:02;11.40;99.90
25436;DHT22;13363;52.772;-3.890;2023-04-24T13:17:29;11.30;99.90
25436;DHT22;13363;52.772;-3.890;2023-04-24T13:19:55;11.10;99.90
25436;DHT22;13363;52.772;-3.890;2023-04-24T13:22:20;11.00;99.90
25436;DHT22;13363;52.772;-3.890;2023-04-24T13:24:47;11.00;99.90
25436;DHT22;13363;52.772;-3.890;2023-04-24T13:27:16;11.20;99.90
25436;DHT22;13363;52.772;-3.890;2023-04-24T13:29:45;11.20;99.90
25436;DHT22;13363;52.772;-3.890;2023-04-24T13:32:13;11.30;99.90
25436;DHT22;13363;52.772;-3.890;2023-04-24T13:34:39;11.10;99.90
25436;DHT22;13363;52.772;-3.890;2023-04-24T13:37:05;11.10;99.90
25436;DHT22;13363;52.772;-3.890;2023-04-24T13:39:31;11.10;99.90
25436;DHT22;13363;52.772;-3.890;2023-04-24T13:41:57;11.00;99.90
25436;DHT22;13363;52.772;-3.890;2023-04-24T13:44:24;11.10;99.90
25436;DHT22;13363;52.772;-3.890;2023-04-24T13:46:52;11.00;99.90
25436;DHT22;13363;52.772;-3.890;2023-04-24T13:49:20;11.00;99.90
25436;DHT22;13363;52.772;-3.890;2023-04-24T13:51:46;11.10;99.90
25436;DHT22;13363;52.772;-3.890;2023-04-24T13:54:12;11.20;99.90
25436;DHT22;13363;52.772;-3.890;2023-04-24T13:56:42;11.20;99.90
25436;DHT22;13363;52.772;-3.890;2023-04-24T13:59:08;11.30;99.90
25436;DHT22;13363;52.772;-3.890;2023-04-24T14:01:35;11.20;99.90
25436;DHT22;13363;52.772;-3.890;2023-04-24T14:04:01;11.20;99.90
25436;DHT22;13363;52.772;-3.890;2023-04-24T14:06:27;11.20;99.90
25436;DHT22;13363;52.772;-3.890;2023-04-24T14:08:53;11.10;99.90
25436;DHT22;13363;52.772;-3.890;2023-04-24T14:11:19;11.00;99.90
25436;DHT22;13363;52.772;-3.890;2023-04-24T14:13:46;10.80;99.90
25436;DHT22;13363;52.772;-3.890;2023-04-24T14:18:38;10.90;99.90
25436;DHT22;13363;52.772;-3.890;2023-04-24T14:21:04;10.90;99.90
25436;DHT22;13363;52.772;-3.890;2023-04-24T14:23:30;10.90;99.90
25436;DHT22;13363;52.772;-3.890;2023-04-24T14:25:59;10.80;99.90
25436;DHT22;13363;52.772;-3.890;2023-04-24T14:28:26;10.80;99.90
25436;DHT22;13363;52.772;-3.890;2023-04-24T14:33:18;10.60;99.90
25436;DHT22;13363;52.772;-3.890;2023-04-24T14:35:44;10.70;99.90
25436;DHT22;13363;52.772;-3.890;2023-04-24T14:38:10;10.70;99.90
25436;DHT22;13363;52.772;-3.890;2023-04-24T14:40:36;10.70;99.90
25436;DHT22;13363;52.772;-3.890;2023-04-24T14:43:02;10.70;99.90
25436;DHT22;13363;52.772;-3.890;2023-04-24T14:45:28;10.80;99.90
25436;DHT22;13363;52.772;-3.890;2023-04-24T14:47:55;11.00;99.90
25436;DHT22;13363;52.772;-3.890;2023-04-24T14:50:21;11.10;99.90
25436;DHT22;13363;52.772;-3.890;2023-04-24T14:52:47;11.10;99.90
25436;DHT22;13363;52.772;-3.890;2023-04-24T14:55:14;11.20;99.90
25436;DHT22;13363;52.772;-3.890;2023-04-24T14:57:42;11.30;99.90
25436;DHT22;13363;52.772;-3.890;2023-04-24T15:00:09;11.50;99.90
25436;DHT22;13363;52.772;-3.890;2023-04-24T15:02:36;11.60;99.90
25436;DHT22;13363;52.772;-3.890;2023-04-24T15:05:06;11.50;99.90
25436;DHT22;13363;52.772;-3.890;2023-04-24T15:07:32;11.80;99.90
25436;DHT22;13363;52.772;-3.890;2023-04-24T15:09:58;11.80;99.90
25436;DHT22;13363;52.772;-3.890;2023-04-24T15:12:24;12.00;99.90
25436;DHT22;13363;52.772;-3.890;2023-04-24T15:14:50;11.90;99.90
25436;DHT22;13363;52.772;-3.890;2023-04-24T15:17:16;11.60;99.90
25436;DHT22;13363;52.772;-3.890;2023-04-24T15:19:42;11.50;99.90
25436;DHT22;13363;52.772;-3.890;2023-04-24T15:22:07;11.40;99.90
25436;DHT22;13363;52.772;-3.890;2023-04-24T15:24:33;11.50;99.90
25436;DHT22;13363;52.772;-3.890;2023-04-24T15:26:59;11.60;99.90
25436;DHT22;13363;52.772;-3.890;2023-04-24T15:29:27;11.70;99.90
25436;DHT22;13363;52.772;-3.890;2023-04-24T15:31:53;12.00;99.90
25436;DHT22;13363;52.772;-3.890;2023-04-24T15:34:19;12.10;99.90
25436;DHT22;13363;52.772;-3.890;2023-04-24T15:36:44;11.80;99.90